createdAt,value
2018-11-20T00:00:29.957Z,0.40
2018-11-20T00:03:30.697Z,0.50
2018-11-20T00:12:30.774Z,0.70
2018-11-20T00:15:31.242Z,0.60
2018-11-20T00:18:31.290Z,0.50
2018-11-20T00:21:39.273Z,0.50
2018-11-20T00:24:42.506Z,0.40
2018-11-20T00:27:42.766Z,0.40
2018-11-20T00:30:33.901Z,0.40
2018-11-20T00:33:26.066Z,0.30
2018-11-20T00:36:26.811Z,0.40
2018-11-20T00:39:26.967Z,0.50
2018-11-20T00:45:42.499Z,0.20
2018-11-20T00:48:43.035Z,0.30
2018-11-20T00:51:46.270Z,0.40
2018-11-20T00:54:46.821Z,0.30
2018-11-20T00:57:47.078Z,0.40
2018-11-20T01:00:53.857Z,0.40
2018-11-20T01:03:54.087Z,0.40
2018-11-20T01:06:54.067Z,0.40
2018-11-20T01:09:55.796Z,0.40
2018-11-20T01:12:56.072Z,0.40
2018-11-20T01:15:56.442Z,0.30
2018-11-20T01:18:56.872Z,0.40
2018-11-20T01:21:57.282Z,0.50
2018-11-20T01:24:57.523Z,0.40
2018-11-20T01:27:58.293Z,0.20
2018-11-20T01:30:59.579Z,0.30
2018-11-20T01:34:06.193Z,0.30
2018-11-20T01:37:06.861Z,0.40
2018-11-20T01:40:06.895Z,0.40
2018-11-20T01:43:06.897Z,0.30
2018-11-20T01:46:13.322Z,0.30
2018-11-20T01:49:13.469Z,0.30
2018-11-20T01:52:13.456Z,0.20
2018-11-20T01:55:13.477Z,0.30
2018-11-20T01:58:11.174Z,0.20
2018-11-20T02:01:11.945Z,0.20
2018-11-20T02:04:18.450Z,0.20
2018-11-20T02:07:24.720Z,0.20
2018-11-20T02:10:15.749Z,0.20
2018-11-20T02:13:15.794Z,0.30
2018-11-20T02:16:16.167Z,0.20
2018-11-20T02:19:17.627Z,0.20
2018-11-20T02:22:17.965Z,0.10
2018-11-20T02:25:21.181Z,0.20
2018-11-20T02:28:22.251Z,0.40
2018-11-20T02:31:22.614Z,0.40
2018-11-20T02:34:22.996Z,0.40
2018-11-20T02:37:23.876Z,0.30
2018-11-20T02:40:24.576Z,0.20
2018-11-20T02:43:30.847Z,0.20
2018-11-20T02:46:31.020Z,0.40
2018-11-20T02:49:31.001Z,0.50
2018-11-20T02:52:31.478Z,0.50
2018-11-20T02:55:31.760Z,0.50
2018-11-20T02:58:32.227Z,0.50
2018-11-20T03:01:35.877Z,0.70
2018-11-20T03:04:32.220Z,0.60
2018-11-20T03:07:32.768Z,0.50
2018-11-20T03:10:28.350Z,0.50
2018-11-20T03:13:17.541Z,0.50
2018-11-20T03:16:25.446Z,0.60
2018-11-20T03:19:25.992Z,0.70
2018-11-20T03:22:26.024Z,0.70
2018-11-20T03:25:32.330Z,0.60
2018-11-20T03:28:32.840Z,0.50
2018-11-20T03:31:33.206Z,0.50
2018-11-20T03:34:36.726Z,0.50
2018-11-20T03:37:40.420Z,0.40
2018-11-20T03:40:29.982Z,0.40
2018-11-20T03:43:23.663Z,0.60
2018-11-20T03:49:28.978Z,0.60
2018-11-20T03:52:35.223Z,0.60
2018-11-20T03:55:37.172Z,0.70
2018-11-20T03:58:37.326Z,0.80
2018-11-20T04:01:40.758Z,0.70
2018-11-20T04:07:44.255Z,0.80
2018-11-20T04:13:56.266Z,1.00
2018-11-20T04:16:59.267Z,1.00
2018-11-20T04:20:02.574Z,1.10
2018-11-20T04:26:07.480Z,1.10
2018-11-20T04:29:10.610Z,1.10
2018-11-20T04:35:18.470Z,1.10
2018-11-20T04:38:25.482Z,1.10
2018-11-20T04:41:14.320Z,1.10
2018-11-20T04:44:17.913Z,1.10
2018-11-20T04:47:24.318Z,1.10
2018-11-20T04:50:15.746Z,1.20
2018-11-20T04:56:27.190Z,1.10
2018-11-20T05:02:32.125Z,1.20
2018-11-20T05:08:42.086Z,1.10
2018-11-20T05:14:35.895Z,1.10
2018-11-20T05:20:41.638Z,1.00
2018-11-20T05:26:37.911Z,1.10
2018-11-20T05:29:44.134Z,1.10
2018-11-20T05:32:47.546Z,1.10
2018-11-20T05:38:50.214Z,1.10
2018-11-20T05:41:53.466Z,1.10
2018-11-20T05:45:02.355Z,1.10
2018-11-20T05:51:20.382Z,1.30
2018-11-20T05:57:29.894Z,1.20
2018-11-20T06:00:19.192Z,1.20
2018-11-20T06:03:20.432Z,1.30
2018-11-20T06:09:32.976Z,1.30
2018-11-20T06:15:36.420Z,1.40
2018-11-20T06:21:47.822Z,1.10
2018-11-20T06:27:35.513Z,1.10
2018-11-20T06:30:43.405Z,1.10
2018-11-20T06:33:47.078Z,1.10
2018-11-20T06:36:35.012Z,1.10
2018-11-20T06:39:38.390Z,1.10
2018-11-20T06:45:49.210Z,1.30
2018-11-20T06:48:52.430Z,1.40
2018-11-20T06:51:50.384Z,1.40
2018-11-20T06:54:51.134Z,1.40
2018-11-20T06:57:42.200Z,1.50
2018-11-20T07:03:47.848Z,1.50
2018-11-20T07:09:53.384Z,1.40
2018-11-20T07:13:00.066Z,1.40
2018-11-20T07:16:03.968Z,1.40
2018-11-20T07:22:48.167Z,1.50
2018-11-20T07:25:38.981Z,1.50
2018-11-20T07:28:42.732Z,1.50
2018-11-20T07:34:54.803Z,1.50
2018-11-20T07:37:55.118Z,1.40
2018-11-20T07:40:53.322Z,1.50
2018-11-20T07:44:02.859Z,1.60
2018-11-20T07:47:06.242Z,1.70
2018-11-20T07:50:09.597Z,1.70
2018-11-20T07:53:13.072Z,1.70
2018-11-20T08:02:57.156Z,1.80
2018-11-20T08:09:06.658Z,1.60
2018-11-20T08:12:06.756Z,1.60
2018-11-20T08:15:12.719Z,1.60
2018-11-20T08:18:12.976Z,1.60
2018-11-20T08:21:07.118Z,1.70
2018-11-20T08:23:59.520Z,1.70
2018-11-20T08:27:03.166Z,1.80
2018-11-20T08:36:08.642Z,1.80
2018-11-20T08:38:49.928Z,1.90
2018-11-20T08:44:18.158Z,1.90
2018-11-20T08:50:11.402Z,1.90
2018-11-20T08:53:11.858Z,1.90
2018-11-20T08:55:53.634Z,1.90
2018-11-20T09:01:37.109Z,2.00
2018-11-20T09:07:25.508Z,2.10
2018-11-20T09:13:29.114Z,2.00
2018-11-20T09:19:32.360Z,2.00
2018-11-20T09:25:43.032Z,2.10
2018-11-20T09:28:46.498Z,2.20
2018-11-20T09:31:47.064Z,2.10
2018-11-20T09:34:50.739Z,2.20
2018-11-20T09:37:54.502Z,2.30
2018-11-20T09:43:43.918Z,2.30
2018-11-20T09:46:44.246Z,2.30
2018-11-20T09:49:44.620Z,2.30
2018-11-20T09:52:45.035Z,2.30
2018-11-20T09:55:25.525Z,2.40
2018-11-20T10:00:47.080Z,2.40
2018-11-20T10:03:47.629Z,2.40
2018-11-20T10:06:45.642Z,2.40
2018-11-20T10:09:46.272Z,2.40
2018-11-20T10:12:27.815Z,2.40
2018-11-20T10:22:06.834Z,2.70
2018-11-20T10:28:10.067Z,2.50
2018-11-20T10:34:13.595Z,2.50
2018-11-20T10:37:19.918Z,2.70
2018-11-20T10:40:21.750Z,2.60
2018-11-20T10:46:26.689Z,2.60
2018-11-20T10:52:29.170Z,2.60
2018-11-20T10:58:31.280Z,2.60
2018-11-20T11:04:39.406Z,2.50
2018-11-20T11:10:38.093Z,2.70
2018-11-20T11:16:42.005Z,2.80
2018-11-20T11:22:06.387Z,2.80
2018-11-20T11:28:09.078Z,2.80
2018-11-20T11:31:09.478Z,2.70
2018-11-20T11:34:13.148Z,2.80
2018-11-20T11:40:22.025Z,2.80
2018-11-20T11:46:11.652Z,2.90
2018-11-20T11:52:18.995Z,3.00
2018-11-20T11:55:22.964Z,3.00
2018-11-20T11:58:06.086Z,3.10
2018-11-20T12:00:59.821Z,3.00
2018-11-20T12:10:21.370Z,2.90
2018-11-20T12:15:52.470Z,3.10
2018-11-20T12:24:09.013Z,3.20
2018-11-20T12:29:58.372Z,3.30
2018-11-20T12:44:18.125Z,3.50
2018-11-20T12:50:05.102Z,3.60
2018-11-20T12:58:34.240Z,4.00
2018-11-20T13:04:28.720Z,4.10
2018-11-20T13:07:28.237Z,4.40
2018-11-20T13:21:52.970Z,3.70
2018-11-20T13:33:58.902Z,3.40
2018-11-20T13:36:59.471Z,3.40
2018-11-20T13:39:42.755Z,3.30
2018-11-20T13:42:48.333Z,3.20
2018-11-20T13:48:35.537Z,3.40
2018-11-20T13:54:18.253Z,3.30
2018-11-20T13:57:21.539Z,3.30
2018-11-20T14:26:18.020Z,3.30
2018-11-20T14:34:57.060Z,3.20
2018-11-20T14:46:43.699Z,3.70
2018-11-20T14:49:47.348Z,3.40
2018-11-20T14:52:31.457Z,3.30
2018-11-20T14:55:31.466Z,3.10
2018-11-20T14:58:27.619Z,3.10
2018-11-20T15:01:21.844Z,3.20
2018-11-20T15:04:04.456Z,3.20
2018-11-20T15:10:00.465Z,3.10
2018-11-20T15:15:50.339Z,3.20
2018-11-20T15:18:44.011Z,3.20
2018-11-20T15:21:46.102Z,3.10
2018-11-20T15:24:46.378Z,3.00
2018-11-20T15:30:54.874Z,2.90
2018-11-20T15:33:55.294Z,2.90
2018-11-20T15:36:55.674Z,2.90
2018-11-20T15:39:59.056Z,3.00
2018-11-20T15:43:02.287Z,3.00
2018-11-20T15:46:02.549Z,2.90
2018-11-20T15:49:05.997Z,2.90
2018-11-20T15:55:11.733Z,2.80
2018-11-20T15:58:12.122Z,2.90
2018-11-20T16:03:53.865Z,2.80
2018-11-20T16:06:54.155Z,2.70
2018-11-20T16:09:57.892Z,2.60
2018-11-20T16:16:06.774Z,2.60
2018-11-20T16:19:07.367Z,2.70
2018-11-20T16:22:07.941Z,2.50
2018-11-20T16:25:08.572Z,2.50
2018-11-20T16:28:09.137Z,2.60
2018-11-20T16:30:59.414Z,2.50
2018-11-20T16:34:00.174Z,2.60
2018-11-20T16:37:00.476Z,2.60
2018-11-20T16:39:44.396Z,2.60
2018-11-20T16:45:27.744Z,2.50
2018-11-20T16:48:27.807Z,2.40
2018-11-20T16:51:28.218Z,2.30
2018-11-20T16:54:23.012Z,2.30
2018-11-20T16:57:05.900Z,2.20
2018-11-20T17:00:08.813Z,2.10
2018-11-20T17:03:08.816Z,2.10
2018-11-20T17:06:09.251Z,2.00
2018-11-20T17:09:09.756Z,1.80
2018-11-20T17:11:59.300Z,1.70
2018-11-20T17:14:44.178Z,1.60
2018-11-20T17:22:55.160Z,1.50
2018-11-20T17:25:55.847Z,1.50
2018-11-20T17:28:36.826Z,1.50
2018-11-20T17:34:12.256Z,1.20
2018-11-20T17:37:19.772Z,1.20
2018-11-20T17:40:04.107Z,1.20
2018-11-20T17:43:04.386Z,1.20
2018-11-20T17:46:04.481Z,1.20
2018-11-20T17:49:05.030Z,1.10
2018-11-20T17:51:47.788Z,0.90
2018-11-20T17:54:51.326Z,0.90
2018-11-20T17:57:33.952Z,0.90
2018-11-20T18:03:00.831Z,0.80
2018-11-20T18:08:41.912Z,0.90
2018-11-20T18:11:45.104Z,1.10
2018-11-20T18:14:36.709Z,1.10
2018-11-20T18:17:43.146Z,1.00
2018-11-20T18:21:08.492Z,1.00
2018-11-20T18:24:08.673Z,1.00
2018-11-20T18:27:08.788Z,0.90
2018-11-20T18:30:09.400Z,0.90
2018-11-20T18:33:09.842Z,1.00
2018-11-20T18:39:11.872Z,0.90
2018-11-20T18:44:54.859Z,0.80
2018-11-20T18:47:58.062Z,0.70
2018-11-20T18:51:00.072Z,0.80
2018-11-20T18:54:00.685Z,0.90
2018-11-20T18:57:01.815Z,0.90
2018-11-20T19:00:08.104Z,0.70
2018-11-20T19:03:09.017Z,0.70
2018-11-20T19:06:09.673Z,0.80
2018-11-20T19:09:12.996Z,0.80
2018-11-20T19:12:13.423Z,0.70
2018-11-20T19:15:13.747Z,0.80
2018-11-20T19:18:20.134Z,0.90
2018-11-20T19:21:19.163Z,1.00
2018-11-20T19:24:19.243Z,1.00
2018-11-20T19:27:19.364Z,1.00
2018-11-20T19:30:14.405Z,1.00
2018-11-20T19:33:14.658Z,1.00
2018-11-20T19:36:14.966Z,1.10
2018-11-20T19:39:15.747Z,1.00
2018-11-20T19:42:19.039Z,0.90
2018-11-20T19:45:19.150Z,0.90
2018-11-20T19:48:19.401Z,0.90
2018-11-20T19:51:20.260Z,0.80
2018-11-20T19:54:21.102Z,0.70
2018-11-20T19:57:21.616Z,0.60
2018-11-20T20:00:27.755Z,0.60
2018-11-20T20:03:34.311Z,0.50
2018-11-20T20:06:34.557Z,0.50
2018-11-20T20:09:35.438Z,0.60
2018-11-20T20:12:38.654Z,0.50
2018-11-20T20:15:39.341Z,0.50
2018-11-20T20:18:39.992Z,0.50
2018-11-20T20:21:40.743Z,0.60
2018-11-20T20:24:41.053Z,0.40
2018-11-20T20:27:41.172Z,0.50
2018-11-20T20:30:41.750Z,0.40
2018-11-20T20:33:45.889Z,0.30
2018-11-20T20:36:46.136Z,0.10
2018-11-20T20:39:46.802Z,0.10
2018-11-20T20:42:35.738Z,0.00
2018-11-20T20:45:39.243Z,-0.10
2018-11-20T20:48:40.084Z,-0.10
2018-11-20T20:51:40.213Z,-0.10
2018-11-20T20:54:46.350Z,-0.30
2018-11-20T20:57:47.056Z,-0.30
2018-11-20T21:00:50.360Z,-0.30
2018-11-20T21:03:47.877Z,-0.30
2018-11-20T21:06:48.092Z,-0.20
2018-11-20T21:09:48.840Z,-0.30
2018-11-20T21:12:49.393Z,-0.30
2018-11-20T21:15:49.734Z,-0.30
2018-11-20T21:18:50.176Z,-0.20
2018-11-20T21:21:50.180Z,-0.20
2018-11-20T21:24:41.982Z,-0.30
2018-11-20T21:27:40.968Z,-0.30
2018-11-20T21:30:43.352Z,-0.40
2018-11-20T21:33:42.042Z,-0.50
2018-11-20T21:36:42.598Z,-0.60
2018-11-20T21:39:42.878Z,-0.60
2018-11-20T21:42:43.755Z,-0.70
2018-11-20T21:45:44.743Z,-0.70
2018-11-20T21:48:47.990Z,-0.70
2018-11-20T21:51:51.866Z,-0.80
2018-11-20T21:54:52.395Z,-0.80
2018-11-20T22:01:02.388Z,-0.90
2018-11-20T22:04:06.115Z,-0.80
2018-11-20T22:07:15.403Z,-0.70
2018-11-20T22:10:13.301Z,-0.70
2018-11-20T22:16:19.122Z,-0.80
2018-11-20T22:19:22.931Z,-0.90
2018-11-20T22:22:23.854Z,-1.00
2018-11-20T22:28:27.086Z,-0.90
2018-11-20T22:31:27.381Z,-0.90
2018-11-20T22:34:31.032Z,-0.80
2018-11-20T22:37:40.220Z,-0.90
2018-11-20T22:40:41.595Z,-0.90
2018-11-20T22:46:54.529Z,-0.90
2018-11-20T22:50:03.690Z,-1.00
2018-11-20T22:53:09.962Z,-1.10
2018-11-20T22:59:15.778Z,-1.20
2018-11-20T23:05:25.566Z,-1.20
2018-11-20T23:08:06.768Z,-1.30
2018-11-20T23:10:47.948Z,-1.30
2018-11-20T23:13:29.720Z,-1.20
2018-11-20T23:16:11.410Z,-1.50
2018-11-20T23:18:52.664Z,-1.30
2018-11-20T23:21:33.786Z,-1.40
2018-11-20T23:24:16.265Z,-1.40
2018-11-20T23:26:57.598Z,-1.40
2018-11-20T23:29:38.580Z,-1.50
2018-11-20T23:32:19.906Z,-1.40
2018-11-20T23:35:01.296Z,-1.40
2018-11-20T23:37:43.302Z,-1.40
2018-11-20T23:40:24.371Z,-1.40
2018-11-20T23:43:05.900Z,-1.50
2018-11-20T23:45:47.355Z,-1.50
2018-11-20T23:48:28.934Z,-1.50
2018-11-20T23:51:09.909Z,-1.60
2018-11-20T23:53:51.183Z,-1.70
2018-11-20T23:56:32.738Z,-1.70
2018-11-20T23:59:14.400Z,-1.70
